Time;durP1;ratioP1;P1;durP2;ratioP2;P2;SDS_P1;SDS_P2;PMS_P1;PMS_P2;Temp;Humidity;BMP_temperature;BMP_pressure;BME280_temperature;BME280_humidity;BME280_pressure;Samples;Min_cycle;Max_cycle;Signal;HPM_P1;HPM_P2
2023/03/25 00:02:24;;;;;;;0.40;0.30;;;10.20;99.90;;;;;;5104232;28;21181;-76
2023/03/25 00:04:52;;;;;;;0.70;0.40;;;10.20;99.90;;;;;;5099588;28;20447;-79
2023/03/25 00:07:19;;;;;;;0.40;0.30;;;10.20;99.90;;;;;;5105611;28;20515;-76
2023/03/25 00:09:46;;;;;;;0.50;0.30;;;10.20;99.90;;;;;;5104813;28;20442;-79
2023/03/25 00:12:15;;;;;;;0.40;0.20;;;10.20;99.90;;;;;;5108248;28;20561;-76
2023/03/25 00:14:42;;;;;;;0.50;0.30;;;10.20;99.90;;;;;;5103920;28;21079;-76
2023/03/25 00:17:12;;;;;;;0.40;0.30;;;10.20;99.90;;;;;;5108189;28;20446;-76
2023/03/25 00:19:40;;;;;;;0.40;0.30;;;10.20;99.90;;;;;;5106863;28;20470;-77
2023/03/25 00:22:07;;;;;;;0.40;0.23;;;10.10;99.90;;;;;;5102660;28;20495;-76
2023/03/25 00:24:36;;;;;;;0.60;0.30;;;10.10;99.90;;;;;;5105193;28;21211;-77
2023/03/25 00:27:03;;;;;;;1.47;0.40;;;10.10;99.90;;;;;;5097600;28;20467;-77
2023/03/25 00:29:30;;;;;;;0.67;0.30;;;10.20;99.90;;;;;;5100079;28;20454;-74
2023/03/25 00:31:57;;;;;;;3.33;0.30;;;10.20;99.90;;;;;;5102490;28;20559;-79
2023/03/25 00:34:26;;;;;;;0.70;0.30;;;10.20;99.90;;;;;;5102162;28;20473;-76
2023/03/25 00:36:53;;;;;;;0.50;0.30;;;10.20;99.90;;;;;;5100034;28;20435;-76
2023/03/25 00:39:20;;;;;;;0.50;0.50;;;10.20;99.90;;;;;;5107331;28;20452;-76
2023/03/25 00:41:47;;;;;;;0.40;0.20;;;10.20;99.90;;;;;;5103511;28;20951;-80
2023/03/25 00:44:16;;;;;;;5.80;0.40;;;10.20;99.90;;;;;;5106351;28;20861;-77
2023/03/25 00:46:43;;;;;;;0.63;0.33;;;10.20;99.90;;;;;;5103485;28;20454;-76
2023/03/25 00:49:11;;;;;;;0.50;0.30;;;10.20;99.90;;;;;;5105635;28;20443;-77
2023/03/25 00:51:39;;;;;;;0.80;0.40;;;10.20;99.90;;;;;;5100604;28;20483;-78
2023/03/25 00:54:06;;;;;;;0.50;0.40;;;10.10;99.90;;;;;;5099091;28;20447;-76
2023/03/25 00:56:33;;;;;;;0.40;0.30;;;10.10;99.90;;;;;;5106848;28;20454;-76
2023/03/25 00:59:00;;;;;;;0.40;0.30;;;10.10;99.90;;;;;;5099396;28;20467;-76
2023/03/25 01:01:28;;;;;;;0.40;0.30;;;10.00;99.90;;;;;;5106031;28;20989;-76
2023/03/25 01:03:58;;;;;;;0.40;0.30;;;9.90;99.90;;;;;;5099412;28;20507;-76
2023/03/25 01:06:31;;;;;;;0.63;0.57;;;10.00;99.90;;;;;;5107344;28;20507;-76
2023/03/25 01:09:01;;;;;;;1.80;1.70;;;9.90;99.90;;;;;;5096025;28;20455;-79
2023/03/25 01:11:33;;;;;;;1.13;1.13;;;9.90;99.90;;;;;;5092370;28;21251;-77
2023/03/25 01:14:01;;;;;;;1.73;1.03;;;9.90;99.90;;;;;;5098876;28;20818;-75
2023/03/25 01:16:28;;;;;;;0.47;0.30;;;9.80;99.90;;;;;;5101624;28;20493;-76
2023/03/25 01:18:56;;;;;;;0.73;0.40;;;9.80;99.90;;;;;;5100380;28;20503;-79
2023/03/25 01:21:23;;;;;;;0.40;0.40;;;9.90;99.90;;;;;;5097085;28;20450;-76
2023/03/25 01:23:50;;;;;;;0.47;0.37;;;9.90;99.90;;;;;;5102880;28;20489;-79
2023/03/25 01:26:18;;;;;;;1.43;0.40;;;9.80;99.90;;;;;;5101367;28;20470;-76
2023/03/25 01:28:47;;;;;;;0.40;0.40;;;9.90;99.90;;;;;;5102379;28;20489;-75
2023/03/25 01:31:15;;;;;;;1.33;0.47;;;9.90;99.90;;;;;;5101366;28;20942;-77
2023/03/25 01:33:42;;;;;;;1.80;0.40;;;9.90;99.90;;;;;;5105541;28;20481;-76
2023/03/25 01:36:11;;;;;;;0.40;0.33;;;9.80;99.90;;;;;;5106412;28;20927;-77
2023/03/25 01:38:39;;;;;;;0.50;0.30;;;9.80;99.90;;;;;;5105850;28;20486;-79
2023/03/25 01:41:07;;;;;;;0.40;0.30;;;9.80;99.90;;;;;;5100114;28;21028;-76
2023/03/25 01:43:36;;;;;;;0.50;0.40;;;9.70;99.90;;;;;;5106403;28;20828;-77
2023/03/25 01:46:03;;;;;;;0.60;0.40;;;9.70;99.90;;;;;;5103760;28;20462;-75
2023/03/25 01:48:39;;;;;;;1.23;0.40;;;9.70;99.90;;;;;;5102700;28;20462;-76
2023/03/25 01:51:10;;;;;;;0.90;0.90;;;9.60;99.90;;;;;;5099047;28;20438;-75
2023/03/25 01:53:39;;;;;;;1.53;0.40;;;9.50;99.90;;;;;;5106215;28;20488;-77
2023/03/25 01:56:10;;;;;;;1.10;1.00;;;9.50;99.90;;;;;;5103714;28;20534;-75
2023/03/25 01:58:40;;;;;;;0.67;0.43;;;9.50;99.90;;;;;;5104749;28;20489;-76
2023/03/25 02:01:10;;;;;;;2.83;2.40;;;9.50;99.90;;;;;;5105757;28;20462;-77
2023/03/25 02:03:37;;;;;;;1.20;0.90;;;9.40;99.90;;;;;;5106026;28;20474;-76
2023/03/25 02:06:08;;;;;;;1.90;0.50;;;9.40;99.90;;;;;;5101957;28;20451;-78
2023/03/25 02:08:38;;;;;;;0.67;0.53;;;9.40;99.90;;;;;;5104052;28;20511;-77
2023/03/25 02:11:06;;;;;;;0.97;0.83;;;9.40;99.90;;;;;;5101221;28;20446;-77
2023/03/25 02:13:35;;;;;;;3.33;2.70;;;9.40;99.90;;;;;;5090537;28;20513;-75
2023/03/25 02:16:24;;;;;;;0.60;0.50;;;9.40;99.90;;;;;;5092041;28;20455;-75
2023/03/25 02:19:05;;;;;;;0.50;0.40;;;9.40;99.90;;;;;;5091908;28;20483;-81
2023/03/25 02:22:06;;;;;;;0.50;0.40;;;9.40;99.90;;;;;;5093788;28;20494;-78
2023/03/25 02:25:14;;;;;;;0.50;0.40;;;9.30;99.90;;;;;;5089156;28;20452;-81
2023/03/25 02:27:57;;;;;;;0.50;0.43;;;9.30;99.90;;;;;;5093307;28;20529;-79
2023/03/25 02:30:57;;;;;;;0.50;0.40;;;9.20;99.90;;;;;;5094074;28;20521;-78
2023/03/25 02:33:47;;;;;;;0.70;0.70;;;9.30;99.90;;;;;;5098688;28;21174;-81
2023/03/25 02:36:56;;;;;;;0.70;0.40;;;9.20;99.90;;;;;;5101836;28;20454;-76
2023/03/25 02:39:27;;;;;;;1.57;0.40;;;9.30;99.90;;;;;;5106438;28;20491;-76
2023/03/25 02:42:04;;;;;;;0.70;0.30;;;9.20;99.90;;;;;;5107742;28;20508;-76
2023/03/25 02:44:36;;;;;;;0.60;0.60;;;9.20;99.90;;;;;;5108496;28;20465;-75
2023/03/25 02:47:06;;;;;;;0.80;0.80;;;9.20;99.90;;;;;;5099772;28;20462;-77
2023/03/25 02:49:37;;;;;;;1.50;1.30;;;9.30;99.90;;;;;;5098497;28;20530;-79
2023/03/25 02:52:10;;;;;;;2.13;1.93;;;9.40;99.90;;;;;;5100825;28;21037;-77
2023/03/25 02:54:41;;;;;;;2.10;1.50;;;9.30;99.90;;;;;;5104403;28;20451;-76
2023/03/25 02:57:10;;;;;;;2.50;1.57;;;9.40;99.90;;;;;;5110002;28;20500;-76
2023/03/25 02:59:39;;;;;;;3.67;3.20;;;9.50;99.90;;;;;;5109322;28;20450;-76
2023/03/25 03:02:12;;;;;;;2.67;1.20;;;9.50;99.90;;;;;;5104262;28;20454;-75
2023/03/25 03:04:49;;;;;;;1.80;0.70;;;9.40;99.90;;;;;;5107055;28;20971;-77
2023/03/25 03:07:23;;;;;;;3.07;1.93;;;9.40;99.90;;;;;;5104682;28;20489;-76
2023/03/25 03:09:59;;;;;;;5.50;1.23;;;9.40;99.90;;;;;;5106276;28;20458;-75
2023/03/25 03:12:41;;;;;;;1.60;0.60;;;9.40;99.90;;;;;;5095657;28;20531;-78
2023/03/25 03:15:22;;;;;;;1.77;0.70;;;9.40;99.90;;;;;;5091184;28;20845;-78
2023/03/25 03:18:00;;;;;;;0.70;0.60;;;9.40;99.90;;;;;;5105149;28;20539;-76
2023/03/25 03:20:35;;;;;;;2.13;0.50;;;9.40;99.90;;;;;;5100816;28;20538;-76
2023/03/25 03:23:07;;;;;;;0.70;0.40;;;9.40;99.90;;;;;;5107746;28;20465;-79
2023/03/25 03:25:40;;;;;;;1.63;0.60;;;9.40;99.90;;;;;;5107511;28;20950;-77
2023/03/25 03:28:15;;;;;;;3.10;2.20;;;9.40;99.90;;;;;;5104393;28;20505;-80
2023/03/25 03:30:47;;;;;;;1.20;0.80;;;9.30;99.90;;;;;;5105371;28;20458;-78
2023/03/25 03:33:20;;;;;;;1.10;0.70;;;9.30;99.90;;;;;;5107715;28;20499;-78
2023/03/25 03:35:56;;;;;;;2.10;0.90;;;9.30;99.90;;;;;;5101357;28;20553;-77
2023/03/25 03:38:27;;;;;;;2.70;0.47;;;9.20;99.90;;;;;;5107663;27;20470;-78
2023/03/25 03:41:00;;;;;;;0.93;0.60;;;9.20;99.90;;;;;;5104636;28;20515;-77
2023/03/25 03:43:31;;;;;;;2.10;0.90;;;9.20;99.90;;;;;;5102582;28;20468;-77
2023/03/25 03:46:02;;;;;;;2.20;0.60;;;9.10;99.90;;;;;;5096642;28;20969;-76
2023/03/25 03:48:37;;;;;;;0.50;0.50;;;9.10;99.90;;;;;;5106196;28;20542;-78
2023/03/25 03:51:08;;;;;;;2.63;1.50;;;9.10;99.90;;;;;;5098054;28;20478;-75
2023/03/25 03:53:38;;;;;;;1.83;1.40;;;9.20;99.90;;;;;;5106054;28;20542;-75
2023/03/25 03:56:11;;;;;;;1.00;1.00;;;9.20;99.90;;;;;;5108213;28;20450;-76
2023/03/25 03:58:42;;;;;;;2.43;1.70;;;9.20;99.90;;;;;;5105752;28;20454;-76
2023/03/25 04:01:13;;;;;;;1.40;1.07;;;9.20;99.90;;;;;;5096325;28;20463;-78
2023/03/25 04:03:47;;;;;;;3.87;2.63;;;9.20;99.90;;;;;;5098820;28;20496;-76
2023/03/25 04:06:23;;;;;;;1.53;0.50;;;9.10;99.90;;;;;;5102844;28;20903;-76
2023/03/25 04:08:57;;;;;;;0.97;0.50;;;9.00;99.90;;;;;;5103768;28;21435;-76
2023/03/25 04:11:31;;;;;;;1.23;0.40;;;8.90;99.90;;;;;;5096193;28;20622;-76
2023/03/25 04:14:01;;;;;;;0.50;0.50;;;8.80;99.90;;;;;;5101496;28;20482;-76
2023/03/25 04:16:28;;;;;;;0.80;0.60;;;8.70;99.90;;;;;;5108046;28;20952;-76
2023/03/25 04:18:57;;;;;;;0.73;0.53;;;8.70;99.90;;;;;;5104092;28;20931;-75
2023/03/25 04:21:24;;;;;;;1.17;0.40;;;8.60;99.90;;;;;;5104606;28;21134;-75
2023/03/25 04:23:51;;;;;;;1.23;0.50;;;8.70;99.90;;;;;;5101521;28;21028;-75
2023/03/25 04:26:19;;;;;;;1.83;0.60;;;8.70;99.90;;;;;;5107068;28;21042;-76
2023/03/25 04:28:47;;;;;;;1.23;0.60;;;8.80;99.90;;;;;;5105498;28;20466;-76
2023/03/25 04:31:16;;;;;;;1.73;0.67;;;8.80;99.90;;;;;;5105824;28;20512;-77
2023/03/25 04:33:47;;;;;;;3.57;2.80;;;8.80;99.90;;;;;;5107312;28;20629;-77
2023/03/25 04:36:14;;;;;;;4.67;1.90;;;8.90;99.90;;;;;;5106017;28;20457;-76
2023/03/25 04:38:44;;;;;;;9.07;7.97;;;8.90;99.90;;;;;;5103569;28;20480;-76
2023/03/25 04:41:12;;;;;;;1.33;0.73;;;8.90;99.90;;;;;;5096472;28;20534;-76
2023/03/25 04:43:39;;;;;;;2.10;0.70;;;8.90;99.90;;;;;;5107085;28;20481;-75
2023/03/25 04:46:12;;;;;;;0.70;0.50;;;8.90;99.90;;;;;;5105397;28;20507;-76
2023/03/25 04:48:40;;;;;;;1.10;0.90;;;8.80;99.90;;;;;;5104510;28;20451;-79
2023/03/25 04:51:09;;;;;;;2.57;1.00;;;8.70;99.90;;;;;;5095729;28;20542;-76
2023/03/25 04:53:37;;;;;;;2.23;0.93;;;8.60;99.90;;;;;;5097496;28;20486;-76
2023/03/25 04:56:05;;;;;;;1.93;1.23;;;8.60;99.90;;;;;;5094039;28;20455;-75
2023/03/25 04:58:35;;;;;;;0.80;0.70;;;8.50;99.90;;;;;;5095167;28;21066;-76
2023/03/25 05:01:04;;;;;;;1.40;0.50;;;8.50;99.90;;;;;;5105404;28;20459;-79
2023/03/25 05:03:34;;;;;;;1.60;0.70;;;8.60;99.90;;;;;;5099449;28;20465;-75
2023/03/25 05:06:01;;;;;;;2.50;0.40;;;8.70;99.90;;;;;;5103620;28;20549;-76
2023/03/25 05:08:28;;;;;;;3.00;0.40;;;8.80;99.90;;;;;;5107571;28;20450;-76
2023/03/25 05:10:55;;;;;;;5.03;0.60;;;8.90;99.90;;;;;;5097793;28;20454;-78
2023/03/25 05:13:22;;;;;;;2.80;1.37;;;9.00;99.90;;;;;;5091861;28;21091;-79
2023/03/25 05:15:49;;;;;;;0.60;0.40;;;9.10;99.90;;;;;;5104747;28;20515;-78
2023/03/25 05:18:17;;;;;;;4.13;0.80;;;9.20;99.90;;;;;;5107290;28;20450;-81
2023/03/25 05:20:49;;;;;;;1.30;0.50;;;9.30;99.90;;;;;;5100939;28;20458;-77
2023/03/25 05:23:17;;;;;;;1.60;0.73;;;9.30;99.90;;;;;;5097511;28;20466;-78
2023/03/25 05:25:46;;;;;;;1.47;0.50;;;9.50;99.90;;;;;;5099386;28;20537;-81
2023/03/25 05:28:14;;;;;;;3.83;0.80;;;9.50;99.90;;;;;;5096182;28;20501;-77
2023/03/25 05:30:44;;;;;;;2.17;1.00;;;9.60;99.90;;;;;;5097048;28;21078;-78
2023/03/25 05:33:14;;;;;;;1.13;0.40;;;9.50;99.90;;;;;;5098345;28;20553;-78
2023/03/25 05:35:41;;;;;;;3.50;0.50;;;9.50;99.90;;;;;;5103990;28;20466;-81
2023/03/25 05:38:11;;;;;;;1.07;0.50;;;9.50;99.90;;;;;;5105884;28;20486;-77
2023/03/25 05:40:38;;;;;;;1.27;0.40;;;9.50;99.90;;;;;;5104659;28;20466;-79
2023/03/25 05:43:06;;;;;;;1.73;0.87;;;9.40;99.90;;;;;;5104957;28;20450;-77
2023/03/25 05:45:34;;;;;;;2.80;0.80;;;9.30;99.90;;;;;;5098639;28;20959;-77
2023/03/25 05:48:02;;;;;;;0.83;0.53;;;9.40;99.90;;;;;;5106660;28;21245;-77
2023/03/25 05:50:29;;;;;;;0.90;0.50;;;9.40;99.90;;;;;;5096808;28;20515;-78
2023/03/25 05:52:58;;;;;;;1.30;0.60;;;9.40;99.90;;;;;;5102523;28;21165;-77
2023/03/25 05:55:27;;;;;;;0.50;0.47;;;9.50;99.90;;;;;;5100512;28;20462;-77
2023/03/25 05:57:55;;;;;;;1.20;0.50;;;9.50;99.90;;;;;;5105419;28;20462;-79
2023/03/25 06:00:23;;;;;;;3.57;0.60;;;9.50;99.90;;;;;;5101182;28;20520;-80
2023/03/25 06:02:50;;;;;;;6.77;1.40;;;9.50;99.90;;;;;;5101500;28;20553;-78
2023/03/25 06:05:22;;;;;;;3.57;1.23;;;9.50;99.90;;;;;;5105149;28;20588;-78
2023/03/25 06:07:49;;;;;;;2.10;1.43;;;9.40;99.90;;;;;;5098744;28;21251;-80
2023/03/25 06:10:18;;;;;;;3.27;0.67;;;9.40;99.90;;;;;;5097665;28;20843;-79
2023/03/25 06:12:47;;;;;;;1.00;0.60;;;9.40;99.90;;;;;;5099031;28;20454;-75
2023/03/25 06:15:16;;;;;;;6.43;0.50;;;9.40;99.90;;;;;;5101898;28;20519;-76
2023/03/25 06:17:45;;;;;;;5.60;0.47;;;9.40;99.90;;;;;;5100422;28;21352;-75
2023/03/25 06:20:18;;;;;;;0.50;0.30;;;9.50;99.90;;;;;;5098034;28;20466;-75
2023/03/25 06:22:46;;;;;;;0.80;0.37;;;9.50;99.90;;;;;;5103883;28;20443;-76
2023/03/25 06:25:16;;;;;;;0.70;0.40;;;9.60;99.90;;;;;;5102644;28;20466;-75
2023/03/25 06:27:43;;;;;;;1.63;0.30;;;9.60;99.90;;;;;;5101962;28;20568;-76
2023/03/25 06:30:13;;;;;;;0.40;0.30;;;9.60;99.90;;;;;;5091696;28;20455;-76
2023/03/25 06:32:40;;;;;;;0.90;0.43;;;9.50;99.90;;;;;;5101747;28;20507;-76
2023/03/25 06:35:09;;;;;;;0.50;0.30;;;9.60;99.90;;;;;;5089635;28;20540;-75
2023/03/25 06:37:37;;;;;;;1.67;0.50;;;9.60;99.90;;;;;;5100060;28;20538;-78
2023/03/25 06:40:05;;;;;;;3.93;0.50;;;9.60;99.90;;;;;;5102377;28;21036;-75
2023/03/25 06:42:33;;;;;;;0.90;0.50;;;9.60;99.90;;;;;;5099492;28;20950;-77
2023/03/25 06:45:01;;;;;;;1.43;1.20;;;9.60;99.90;;;;;;5106157;28;20451;-77
2023/03/25 06:47:30;;;;;;;1.77;0.50;;;9.60;99.90;;;;;;5102357;28;20461;-75
2023/03/25 06:49:57;;;;;;;2.83;0.50;;;9.60;99.90;;;;;;5103694;28;20505;-77
2023/03/25 06:52:24;;;;;;;0.50;0.40;;;9.70;99.90;;;;;;5102178;28;20462;-76
2023/03/25 06:54:51;;;;;;;3.97;3.67;;;9.60;99.90;;;;;;5101818;28;20551;-76
2023/03/25 06:57:18;;;;;;;4.40;2.97;;;9.70;99.90;;;;;;5086326;28;20451;-77
2023/03/25 06:59:46;;;;;;;3.23;1.87;;;9.70;99.90;;;;;;5091094;28;20467;-75
2023/03/25 07:02:13;;;;;;;7.70;5.80;;;9.80;99.90;;;;;;5098708;28;20455;-76
2023/03/25 07:04:41;;;;;;;2.77;1.00;;;9.90;99.90;;;;;;5102162;28;21215;-79
2023/03/25 07:07:09;;;;;;;0.77;0.50;;;10.00;99.90;;;;;;5098717;28;20547;-74
2023/03/25 07:09:36;;;;;;;0.80;0.50;;;10.10;99.90;;;;;;5099767;28;20539;-79
2023/03/25 07:12:03;;;;;;;2.90;1.87;;;10.20;99.90;;;;;;5097191;28;20466;-75
2023/03/25 07:14:30;;;;;;;1.07;0.47;;;10.30;99.90;;;;;;5099325;28;20546;-75
2023/03/25 07:16:57;;;;;;;0.40;0.30;;;10.30;99.90;;;;;;5103663;28;20527;-80
2023/03/25 07:19:24;;;;;;;3.23;1.33;;;10.30;99.90;;;;;;5096056;28;21034;-78
2023/03/25 07:21:52;;;;;;;1.40;0.30;;;10.40;99.90;;;;;;5090077;28;20475;-76
2023/03/25 07:24:19;;;;;;;0.53;0.30;;;10.40;99.90;;;;;;5098804;28;20504;-77
2023/03/25 07:26:46;;;;;;;0.60;0.37;;;10.50;99.90;;;;;;5099945;28;20474;-75
2023/03/25 07:29:13;;;;;;;1.23;0.40;;;10.60;99.90;;;;;;5098558;28;20487;-74
2023/03/25 07:31:40;;;;;;;2.73;0.40;;;10.60;99.90;;;;;;5098462;28;20878;-78
2023/03/25 07:34:07;;;;;;;3.03;0.57;;;10.70;99.90;;;;;;5100938;28;20489;-79
2023/03/25 07:36:34;;;;;;;2.30;0.60;;;10.50;99.90;;;;;;5101602;28;20901;-80
2023/03/25 07:39:03;;;;;;;1.77;0.80;;;10.30;99.90;;;;;;5103633;28;20466;-80
2023/03/25 07:41:30;;;;;;;1.00;0.50;;;10.20;99.90;;;;;;5104919;28;20463;-76
2023/03/25 07:43:57;;;;;;;1.10;0.90;;;10.20;99.90;;;;;;5097279;28;21011;-76
2023/03/25 07:46:24;;;;;;;0.83;0.50;;;10.20;99.90;;;;;;5106961;28;20474;-78
2023/03/25 07:48:51;;;;;;;0.50;0.50;;;10.20;99.90;;;;;;5102398;28;20835;-80
2023/03/25 07:51:18;;;;;;;3.20;1.43;;;10.10;99.90;;;;;;5108817;28;20458;-79
2023/03/25 07:53:46;;;;;;;2.57;0.50;;;10.10;99.90;;;;;;5108863;28;20482;-79
2023/03/25 07:56:14;;;;;;;31.07;18.53;;;10.10;99.90;;;;;;5103850;28;20446;-78
2023/03/25 07:58:43;;;;;;;34.13;19.77;;;10.20;99.90;;;;;;5107128;28;20451;-78
2023/03/25 08:01:10;;;;;;;4.87;1.20;;;10.10;99.90;;;;;;5105342;28;20463;-78
2023/03/25 08:03:38;;;;;;;3.50;2.43;;;10.00;99.90;;;;;;5104756;28;20447;-78
2023/03/25 08:06:06;;;;;;;12.17;7.07;;;9.90;99.90;;;;;;5099247;28;22095;-79
2023/03/25 08:08:34;;;;;;;2.03;0.83;;;9.90;99.90;;;;;;5108303;28;20549;-78
2023/03/25 08:11:01;;;;;;;2.07;0.90;;;10.00;99.90;;;;;;5109235;28;20482;-76
2023/03/25 08:13:30;;;;;;;1.10;0.50;;;10.00;99.90;;;;;;5097090;28;20452;-78
2023/03/25 08:15:57;;;;;;;13.83;8.97;;;10.10;99.90;;;;;;5093926;28;20467;-76
2023/03/25 08:18:24;;;;;;;41.67;26.70;;;10.20;99.90;;;;;;5108069;28;20455;-78
2023/03/25 08:20:51;;;;;;;9.10;7.00;;;10.20;99.90;;;;;;5101237;28;20520;-78
2023/03/25 08:23:18;;;;;;;4.60;2.50;;;10.20;99.90;;;;;;5104704;28;21009;-75
2023/03/25 08:25:48;;;;;;;5.37;2.30;;;10.20;99.90;;;;;;5106634;28;20523;-78
2023/03/25 08:28:16;;;;;;;2.23;1.53;;;10.30;99.90;;;;;;5096771;28;21186;-77
2023/03/25 08:30:45;;;;;;;0.93;0.40;;;10.50;99.90;;;;;;5100124;28;20547;-78
2023/03/25 08:33:12;;;;;;;1.33;0.40;;;10.70;99.90;;;;;;5095986;28;20489;-77
2023/03/25 08:35:39;;;;;;;5.87;3.23;;;10.80;99.90;;;;;;5101463;28;20489;-75
2023/03/25 08:38:06;;;;;;;2.30;1.47;;;11.10;99.90;;;;;;5105882;28;21256;-77
2023/03/25 08:40:35;;;;;;;3.13;1.00;;;11.20;99.90;;;;;;5100574;28;20491;-77
2023/03/25 08:43:05;;;;;;;1.80;1.13;;;11.20;99.90;;;;;;5101497;28;20943;-79
2023/03/25 08:45:33;;;;;;;1.90;0.50;;;11.20;99.90;;;;;;5099425;28;20471;-78
2023/03/25 08:48:02;;;;;;;1.73;0.90;;;11.20;99.90;;;;;;5099678;28;20882;-78
2023/03/25 08:50:29;;;;;;;1.27;0.63;;;11.10;99.90;;;;;;5102986;28;20557;-78
2023/03/25 08:52:57;;;;;;;4.83;1.53;;;11.10;99.90;;;;;;5098573;28;20463;-78
2023/03/25 08:55:24;;;;;;;1.10;0.73;;;11.10;99.90;;;;;;5105868;28;20482;-77
2023/03/25 08:57:51;;;;;;;4.90;2.57;;;11.10;99.50;;;;;;5103229;28;21076;-80
2023/03/25 09:00:22;;;;;;;1.87;0.93;;;11.00;99.80;;;;;;5100381;28;20539;-76
2023/03/25 09:02:50;;;;;;;1.40;0.53;;;11.00;99.30;;;;;;5098475;28;20465;-80
2023/03/25 09:05:18;;;;;;;1.27;0.50;;;10.90;99.50;;;;;;5104425;28;21039;-79
2023/03/25 09:07:46;;;;;;;2.93;0.40;;;10.90;99.70;;;;;;5101970;28;20473;-79
2023/03/25 09:10:13;;;;;;;0.60;0.30;;;10.90;98.70;;;;;;5107191;28;20644;-79
2023/03/25 09:12:40;;;;;;;0.40;0.30;;;10.90;99.90;;;;;;5100808;28;20512;-78
2023/03/25 09:15:10;;;;;;;0.50;0.50;;;10.90;98.80;;;;;;5104287;28;20550;-78
2023/03/25 09:17:37;;;;;;;0.90;0.40;;;11.00;98.80;;;;;;5103291;28;20448;-77
2023/03/25 09:20:07;;;;;;;0.40;0.23;;;11.10;99.10;;;;;;5108015;28;20470;-79
2023/03/25 09:22:36;;;;;;;1.43;0.30;;;11.30;99.30;;;;;;5104101;28;20486;-77
2023/03/25 09:25:03;;;;;;;0.47;0.30;;;11.50;98.00;;;;;;5097198;28;20462;-76
2023/03/25 09:27:30;;;;;;;0.63;0.30;;;11.80;97.40;;;;;;5095886;28;20491;-78
2023/03/25 09:29:57;;;;;;;0.97;0.40;;;12.10;98.70;;;;;;5103064;28;20496;-79
2023/03/25 09:32:24;;;;;;;1.60;0.40;;;12.00;96.50;;;;;;5103527;28;20462;-79
2023/03/25 09:34:51;;;;;;;1.20;0.30;;;11.90;97.40;;;;;;5101077;28;20590;-76
2023/03/25 09:37:18;;;;;;;0.40;0.20;;;12.00;98.10;;;;;;5105757;28;20455;-77
2023/03/25 09:39:47;;;;;;;0.60;0.30;;;12.00;97.40;;;;;;5106216;28;20546;-76
2023/03/25 09:42:34;;;;;;;0.73;0.30;;;11.80;96.40;;;;;;5102793;28;20474;-76
2023/03/25 09:45:12;;;;;;;0.97;0.30;;;11.80;95.90;;;;;;5100782;28;20477;-77
2023/03/25 09:47:41;;;;;;;0.67;0.30;;;12.30;97.80;;;;;;5099851;28;21187;-78
2023/03/25 09:50:14;;;;;;;0.50;0.37;;;12.70;95.90;;;;;;5099638;28;20516;-78
2023/03/25 09:52:51;;;;;;;1.07;0.30;;;12.80;94.00;;;;;;5092617;28;20467;-79
2023/03/25 09:55:25;;;;;;;0.40;0.30;;;12.50;93.80;;;;;;5106205;27;20485;-78
2023/03/25 09:57:57;;;;;;;0.70;0.30;;;12.80;95.30;;;;;;5104360;27;20456;-77
2023/03/25 10:00:26;;;;;;;0.43;0.30;;;12.90;92.90;;;;;;5100253;28;20451;-79
2023/03/25 10:03:03;;;;;;;0.50;0.30;;;13.00;93.90;;;;;;5091625;28;20505;-78
2023/03/25 10:05:58;;;;;;;0.70;0.30;;;13.10;93.10;;;;;;5103102;28;20450;-78
2023/03/25 10:08:34;;;;;;;1.13;0.30;;;13.30;92.80;;;;;;5096434;28;20540;-78
2023/03/25 10:11:08;;;;;;;0.40;0.20;;;12.90;91.80;;;;;;5101339;28;20550;-78
2023/03/25 10:13:43;;;;;;;0.43;0.30;;;12.80;92.50;;;;;;5099150;28;21058;-78
2023/03/25 10:16:19;;;;;;;0.50;0.30;;;13.00;94.10;;;;;;5098241;28;20542;-77
2023/03/25 10:18:58;;;;;;;0.67;0.30;;;12.90;91.00;;;;;;5093398;28;20515;-77
2023/03/25 10:21:30;;;;;;;2.50;0.30;;;13.20;91.80;;;;;;5100580;28;20511;-77
2023/03/25 10:24:06;;;;;;;0.50;0.37;;;13.50;93.20;;;;;;5102858;28;20462;-76
2023/03/25 10:26:40;;;;;;;0.87;0.20;;;13.30;91.60;;;;;;5094868;28;20490;-78
2023/03/25 10:29:12;;;;;;;1.17;0.30;;;13.40;90.60;;;;;;5092783;28;20463;-76
2023/03/25 10:31:45;;;;;;;0.50;0.30;;;13.20;89.60;;;;;;5097157;28;20471;-77
2023/03/25 10:34:17;;;;;;;3.10;0.33;;;13.30;84.20;;;;;;5090912;28;21060;-78
2023/03/25 10:36:49;;;;;;;0.93;0.30;;;13.20;84.80;;;;;;5095666;28;20503;-77
2023/03/25 10:39:19;;;;;;;0.40;0.20;;;12.90;80.30;;;;;;5102410;28;20447;-76
2023/03/25 10:41:53;;;;;;;1.70;0.30;;;12.40;83.70;;;;;;5101415;28;20466;-78
2023/03/25 10:44:22;;;;;;;2.73;0.30;;;12.40;82.80;;;;;;5097009;28;20511;-75
2023/03/25 10:46:54;;;;;;;1.37;0.30;;;12.20;85.50;;;;;;5098209;28;20682;-76
2023/03/25 10:49:25;;;;;;;1.17;0.73;;;12.20;85.10;;;;;;5095384;28;20543;-76
2023/03/25 10:51:56;;;;;;;1.63;0.50;;;12.10;87.90;;;;;;5101630;28;20495;-76
2023/03/25 10:54:27;;;;;;;0.40;0.30;;;12.30;85.90;;;;;;5103955;28;20454;-79
2023/03/25 10:56:58;;;;;;;0.50;0.30;;;12.50;87.60;;;;;;5099010;28;21882;-76
2023/03/25 10:59:30;;;;;;;1.70;0.60;;;12.50;86.40;;;;;;5100381;28;20515;-76
2023/03/25 11:01:59;;;;;;;1.40;0.30;;;12.40;84.70;;;;;;5098518;28;20458;-78
2023/03/25 11:04:33;;;;;;;1.53;1.10;;;12.20;85.70;;;;;;5107943;28;20458;-75
2023/03/25 11:07:04;;;;;;;1.43;0.40;;;12.20;82.80;;;;;;5104277;28;20462;-76
2023/03/25 11:09:35;;;;;;;0.70;0.53;;;12.30;83.60;;;;;;5104748;28;20457;-78
2023/03/25 11:12:06;;;;;;;0.43;0.30;;;12.50;85.00;;;;;;5108556;28;20457;-79
2023/03/25 11:14:38;;;;;;;2.30;0.30;;;12.40;81.60;;;;;;5109010;28;20446;-78
2023/03/25 11:17:11;;;;;;;0.40;0.30;;;12.70;81.70;;;;;;5108676;28;20461;-78
2023/03/25 11:19:42;;;;;;;0.40;0.20;;;13.30;88.50;;;;;;5106326;28;20462;-79
2023/03/25 11:22:11;;;;;;;2.97;0.33;;;13.60;79.20;;;;;;5100557;28;20450;-77
2023/03/25 11:24:42;;;;;;;0.93;0.30;;;13.90;87.90;;;;;;5105610;28;20458;-77
2023/03/25 11:27:17;;;;;;;0.60;0.30;;;13.90;85.60;;;;;;5098481;28;20894;-77
2023/03/25 11:29:51;;;;;;;0.60;0.30;;;13.60;79.50;;;;;;5101896;28;20457;-79
2023/03/25 11:32:24;;;;;;;0.60;0.30;;;13.30;81.30;;;;;;5108470;28;20465;-76
2023/03/25 11:34:53;;;;;;;0.50;0.50;;;13.40;82.50;;;;;;5106551;28;21047;-76
2023/03/25 11:37:23;;;;;;;0.90;0.40;;;13.20;79.80;;;;;;5103594;28;20913;-77
2023/03/25 11:39:54;;;;;;;1.23;0.30;;;13.00;82.90;;;;;;5104969;28;20466;-78
2023/03/25 11:42:31;;;;;;;0.90;0.40;;;13.10;83.50;;;;;;5109470;28;20857;-76
2023/03/25 11:45:01;;;;;;;0.87;0.30;;;12.90;82.80;;;;;;5104977;28;20516;-77
2023/03/25 11:47:32;;;;;;;0.47;0.30;;;12.60;82.40;;;;;;5099850;28;21065;-75
2023/03/25 11:50:00;;;;;;;0.50;0.30;;;12.90;82.10;;;;;;5102257;28;20443;-75
2023/03/25 11:52:40;;;;;;;1.20;0.30;;;13.20;82.40;;;;;;5108311;28;20503;-76
2023/03/25 11:55:15;;;;;;;0.40;0.20;;;13.30;82.50;;;;;;5097127;28;20486;-78
2023/03/25 11:57:45;;;;;;;1.40;0.30;;;13.40;80.20;;;;;;5104473;28;20465;-77
2023/03/25 12:00:26;;;;;;;0.60;0.30;;;13.40;78.80;;;;;;5108776;28;20470;-79
2023/03/25 12:03:00;;;;;;;0.80;0.40;;;13.60;82.70;;;;;;5103499;28;20454;-75
2023/03/25 12:05:27;;;;;;;0.40;0.30;;;13.80;80.50;;;;;;5107284;28;20519;-76
2023/03/25 12:08:03;;;;;;;0.83;0.20;;;13.70;80.70;;;;;;5101437;28;20451;-79
2023/03/25 12:10:41;;;;;;;0.60;0.30;;;13.20;80.00;;;;;;5102266;28;20542;-78
2023/03/25 12:13:18;;;;;;;1.13;0.40;;;12.90;78.60;;;;;;5093785;28;20469;-77
2023/03/25 12:15:53;;;;;;;0.50;0.30;;;12.90;81.60;;;;;;5105841;28;20569;-77
2023/03/25 12:18:37;;;;;;;0.40;0.20;;;13.00;83.80;;;;;;5103192;28;20451;-79
2023/03/25 12:21:13;;;;;;;0.40;0.23;;;13.10;81.70;;;;;;5096818;28;21204;-79
2023/03/25 12:23:49;;;;;;;0.50;0.30;;;12.70;81.90;;;;;;5108448;28;20949;-77
2023/03/25 12:26:19;;;;;;;0.50;0.30;;;13.10;87.90;;;;;;5106150;27;20536;-78
2023/03/25 12:29:19;;;;;;;0.40;0.20;;;13.40;86.40;;;;;;5117501;27;20470;-78
2023/03/25 12:32:01;;;;;;;2.00;0.67;;;13.00;84.10;;;;;;5094106;28;21176;-75
2023/03/25 12:34:41;;;;;;;0.50;0.30;;;12.70;85.20;;;;;;5097205;28;20455;-78
2023/03/25 12:37:19;;;;;;;0.50;0.23;;;13.00;83.50;;;;;;5094973;28;20478;-75
2023/03/25 12:39:57;;;;;;;0.40;0.20;;;13.60;80.70;;;;;;5102244;28;20520;-77
2023/03/25 12:42:38;;;;;;;0.40;0.20;;;13.90;82.60;;;;;;5108277;28;21229;-79
2023/03/25 12:45:30;;;;;;;0.40;0.20;;;14.00;81.80;;;;;;5098552;28;20512;-79
2023/03/25 12:48:04;;;;;;;0.40;0.20;;;14.00;83.10;;;;;;5105415;28;20465;-80
2023/03/25 12:50:45;;;;;;;0.40;0.20;;;14.10;80.10;;;;;;5095026;28;20972;-81
2023/03/25 12:53:32;;;;;;;0.40;0.20;;;14.30;77.50;;;;;;5094374;27;20458;-78
2023/03/25 12:56:10;;;;;;;0.47;0.30;;;14.50;78.90;;;;;;5097923;28;20486;-78
2023/03/25 12:59:03;;;;;;;0.50;0.30;;;13.90;78.10;;;;;;5098572;28;20512;-78
2023/03/25 13:01:39;;;;;;;0.70;0.23;;;13.50;80.40;;;;;;5100880;28;20521;-80
2023/03/25 13:04:30;;;;;;;0.40;0.20;;;13.20;81.00;;;;;;5095369;28;20499;-78
2023/03/25 13:07:03;;;;;;;1.73;0.30;;;12.90;84.30;;;;;;5098882;28;20458;-78
2023/03/25 13:09:34;;;;;;;0.40;0.30;;;12.60;87.70;;;;;;5098111;28;20837;-78
2023/03/25 13:12:05;;;;;;;0.50;0.20;;;12.50;91.90;;;;;;5104189;28;20462;-78